In Rescue
 
Open Full Screen Window  High Contrast Mode
Wind Gusting 15 knots
10
July 25, 2021 8:15 AM CDT
Weather Information
Wind Direction
  300 °
Wind Speed
  10 kt (12 mph)
Wind Gust
  15 kt (17 mph)
Altimeter
29.93 in
Visibility
10 SM
Temperature
21° C
70° F
Dewpoint
11° C
52° F
Humidity
53%
1hr Rain Fall
00.00 in.
24hr Rain Fall
00.00 in.
Sky Condition
Clear
VFR

METAR KVWU 251315Z AUTO 30010G15KT 10SM CLR 21/11 A2993 RMK AO2

FAA Disclaimer: The data displayed is for advisory purposes only and is not to be used for flight planning or operations.